Terminal Aerodrome Forecast
Issued by NWS Shreveport, LA

Home | Current Version | Previous Version | Text Only | Print | Product List | Glossary On
Versions: 1 2 3 4 5 6 7 8 9 10 11 12 13 14 15 16 17 18 19 20 21
426
FTUS44 KSHV 061733
TAFELD
TAF
KELD 061733Z 0618/0718 30008KT P6SM OVC008
      TEMPO 0618/0622 SCT010 OVC020
     FM062200 04005KT P6SM OVC015
     FM070800 05007KT P6SM OVC010
      TEMPO 0714/0718 SCT015 OVC025=

USA.gov is the U.S. government's official web portal to all federal, state and local government web resources and services.